Time;durP1;ratioP1;P1;durP2;ratioP2;P2;SDS_P1;SDS_P2;PMS_P1;PMS_P2;Temp;Humidity;BMP_temperature;BMP_pressure;BME280_temperature;BME280_humidity;BME280_pressure;Samples;Min_cycle;Max_cycle;Signal;HPM_P1;HPM_P2
2023/10/21 00:01:00;;;;;;;2.70;2.50;;;16.90;65.80;;;;;;4962933;28;20577;-76
2023/10/21 00:03:29;;;;;;;5.33;2.70;;;16.90;66.00;;;;;;4972030;28;20458;-77
2023/10/21 00:05:58;;;;;;;2.40;2.23;;;16.90;66.10;;;;;;4955101;28;20467;-77
2023/10/21 00:08:26;;;;;;;2.50;2.30;;;16.90;66.00;;;;;;4955352;28;20462;-77
2023/10/21 00:11:03;;;;;;;2.40;2.20;;;16.90;66.10;;;;;;5023440;23;21014;-77
2023/10/21 00:13:31;;;;;;;2.67;2.47;;;16.90;66.00;;;;;;5015565;28;20436;-77
2023/10/21 00:15:59;;;;;;;2.57;2.37;;;16.90;66.10;;;;;;5008726;28;20530;-77
2023/10/21 00:18:27;;;;;;;2.47;2.30;;;16.90;66.10;;;;;;5011440;28;20475;-78
2023/10/21 00:20:56;;;;;;;2.30;2.20;;;16.90;66.10;;;;;;5008573;28;20472;-77
2023/10/21 00:23:24;;;;;;;2.40;2.17;;;16.90;66.10;;;;;;5013394;28;20994;-78
2023/10/21 00:25:52;;;;;;;2.33;1.97;;;16.90;66.10;;;;;;5015536;28;20530;-78
2023/10/21 00:28:21;;;;;;;2.93;2.53;;;16.90;66.20;;;;;;5026135;28;20428;-78
2023/10/21 00:30:49;;;;;;;2.80;2.60;;;16.90;66.10;;;;;;5013094;28;20511;-77
2023/10/21 00:33:17;;;;;;;2.70;2.50;;;17.00;66.40;;;;;;5016831;28;20445;-77
2023/10/21 00:35:46;;;;;;;3.60;2.70;;;16.90;66.30;;;;;;5020978;28;20459;-77
2023/10/21 00:38:13;;;;;;;3.60;2.50;;;16.90;66.30;;;;;;5018514;28;20467;-78
2023/10/21 00:40:50;;;;;;;2.70;2.50;;;16.90;66.30;;;;;;5017689;28;20468;-77
2023/10/21 00:43:35;;;;;;;3.23;2.33;;;16.90;66.10;;;;;;5016884;28;20433;-77
2023/10/21 00:46:06;;;;;;;2.60;2.40;;;17.00;66.50;;;;;;5004476;28;20575;-78
2023/10/21 00:48:35;;;;;;;3.03;2.37;;;16.90;66.40;;;;;;5028674;28;20442;-78
2023/10/21 00:51:03;;;;;;;2.97;2.40;;;17.00;66.70;;;;;;5002668;28;20546;-77
2023/10/21 00:53:31;;;;;;;2.60;2.50;;;17.00;66.40;;;;;;5008098;28;20459;-78
2023/10/21 00:55:59;;;;;;;4.40;2.87;;;17.00;66.50;;;;;;5021470;28;20432;-78
2023/10/21 00:58:30;;;;;;;2.53;2.33;;;17.00;66.60;;;;;;5027743;28;20439;-79
2023/10/21 01:01:01;;;;;;;3.33;3.07;;;17.00;66.70;;;;;;5010481;28;20501;-78
2023/10/21 01:03:30;;;;;;;2.40;2.20;;;17.00;66.70;;;;;;5014834;28;20438;-76
2023/10/21 01:05:59;;;;;;;2.83;2.53;;;17.00;66.80;;;;;;5002469;28;20927;-76
2023/10/21 01:08:26;;;;;;;3.13;2.50;;;17.00;66.70;;;;;;4999265;28;20440;-76
2023/10/21 01:10:55;;;;;;;2.23;2.13;;;17.00;66.70;;;;;;5017399;28;20490;-76
2023/10/21 01:13:23;;;;;;;3.40;3.10;;;17.00;66.70;;;;;;5018332;28;20436;-77
2023/10/21 01:15:51;;;;;;;2.43;2.23;;;17.00;66.80;;;;;;5012454;28;20532;-77
2023/10/21 01:18:21;;;;;;;2.80;2.60;;;17.00;66.70;;;;;;5004398;28;20448;-77
2023/10/21 01:20:53;;;;;;;2.63;2.43;;;17.00;66.80;;;;;;5030378;28;20474;-76
2023/10/21 01:23:22;;;;;;;2.30;2.20;;;17.00;66.90;;;;;;5018533;28;20515;-77
2023/10/21 01:25:51;;;;;;;2.90;2.70;;;17.00;66.80;;;;;;5012381;28;20506;-77
2023/10/21 01:28:19;;;;;;;2.53;2.40;;;17.00;67.00;;;;;;5012485;28;20514;-77
2023/10/21 01:30:47;;;;;;;2.73;2.53;;;17.00;66.90;;;;;;5011731;28;20500;-76
2023/10/21 01:33:15;;;;;;;5.50;2.43;;;17.00;67.00;;;;;;5005698;28;20472;-76
2023/10/21 01:35:44;;;;;;;2.67;2.47;;;17.00;66.90;;;;;;5021757;28;20444;-76
2023/10/21 01:38:12;;;;;;;2.83;2.63;;;17.00;67.00;;;;;;5001948;28;20477;-76
2023/10/21 01:40:41;;;;;;;2.67;2.57;;;17.00;67.00;;;;;;5005627;28;20493;-76
2023/10/21 01:43:09;;;;;;;2.50;2.30;;;17.00;67.10;;;;;;5013887;28;20452;-76
2023/10/21 01:45:37;;;;;;;2.67;2.47;;;17.10;67.20;;;;;;5018723;28;20456;-77
2023/10/21 01:48:08;;;;;;;3.00;2.60;;;17.00;67.10;;;;;;5014229;28;20448;-77
2023/10/21 01:50:37;;;;;;;2.33;2.13;;;17.10;67.30;;;;;;5019694;28;20475;-76
2023/10/21 01:53:06;;;;;;;4.40;2.43;;;17.10;67.20;;;;;;5018487;28;21012;-78
2023/10/21 01:55:34;;;;;;;3.93;2.60;;;17.10;67.20;;;;;;4999742;28;20468;-76
2023/10/21 01:58:04;;;;;;;3.33;3.03;;;17.10;67.30;;;;;;5006613;28;20457;-76
2023/10/21 02:00:32;;;;;;;3.40;2.83;;;17.10;67.30;;;;;;5024198;28;20470;-76
2023/10/21 02:03:00;;;;;;;3.10;2.80;;;17.10;67.30;;;;;;5022226;28;20479;-76
2023/10/21 02:05:29;;;;;;;3.20;2.90;;;17.10;67.30;;;;;;5015558;28;20445;-76
2023/10/21 02:07:57;;;;;;;2.43;2.23;;;17.10;67.30;;;;;;5015772;28;20476;-76
2023/10/21 02:10:25;;;;;;;2.97;2.77;;;17.10;67.40;;;;;;5015490;28;20483;-76
2023/10/21 02:12:53;;;;;;;2.67;2.47;;;17.10;67.40;;;;;;5024807;28;20439;-76
2023/10/21 02:15:22;;;;;;;3.30;3.00;;;17.10;67.30;;;;;;5016772;28;20456;-76
2023/10/21 02:17:50;;;;;;;2.60;2.40;;;17.10;67.30;;;;;;5015849;28;20437;-77
2023/10/21 02:20:18;;;;;;;2.63;2.43;;;17.10;67.50;;;;;;5010233;28;20490;-77
2023/10/21 02:22:46;;;;;;;2.80;2.60;;;17.20;67.50;;;;;;5008965;28;20534;-76
2023/10/21 02:25:15;;;;;;;2.80;2.37;;;17.10;67.30;;;;;;5006507;28;20441;-76
2023/10/21 02:27:43;;;;;;;3.43;3.10;;;17.10;67.40;;;;;;5010958;28;20483;-77
2023/10/21 02:30:13;;;;;;;2.53;2.33;;;17.10;67.50;;;;;;5004289;28;20499;-76
2023/10/21 02:32:45;;;;;;;3.37;2.63;;;17.10;67.40;;;;;;5020805;28;20440;-76
2023/10/21 02:35:13;;;;;;;2.63;2.43;;;17.20;67.70;;;;;;5015894;28;20487;-76
2023/10/21 02:37:41;;;;;;;3.10;2.80;;;17.20;67.80;;;;;;5023146;28;20502;-76
2023/10/21 02:40:10;;;;;;;3.00;2.80;;;17.20;67.80;;;;;;5007703;28;20456;-76
2023/10/21 02:42:38;;;;;;;3.07;2.87;;;17.20;67.60;;;;;;5015388;28;20520;-76
2023/10/21 02:45:07;;;;;;;4.10;3.47;;;17.20;67.70;;;;;;5033250;28;20435;-76
2023/10/21 02:47:36;;;;;;;4.23;3.00;;;17.20;67.50;;;;;;5017770;28;20471;-76
2023/10/21 02:50:07;;;;;;;3.50;3.20;;;17.20;67.80;;;;;;5024063;28;20470;-76
2023/10/21 02:52:37;;;;;;;4.20;3.80;;;17.20;67.60;;;;;;5028425;28;20448;-77
2023/10/21 02:55:06;;;;;;;4.50;4.07;;;17.20;67.70;;;;;;5016770;28;20435;-77
2023/10/21 02:57:34;;;;;;;4.63;4.10;;;17.20;67.70;;;;;;5022785;28;20432;-77
2023/10/21 03:00:04;;;;;;;9.70;5.43;;;17.20;67.80;;;;;;5010079;28;20464;-77
2023/10/21 03:02:32;;;;;;;6.33;4.87;;;17.20;67.80;;;;;;4996221;28;20509;-77
2023/10/21 03:05:01;;;;;;;7.80;5.47;;;17.20;67.80;;;;;;5008906;28;20468;-76
2023/10/21 03:07:30;;;;;;;9.00;6.93;;;17.20;67.80;;;;;;5022103;28;20477;-77
2023/10/21 03:09:58;;;;;;;10.10;7.03;;;17.20;67.80;;;;;;5015222;28;20549;-78
2023/10/21 03:12:26;;;;;;;10.00;7.03;;;17.20;67.80;;;;;;5016445;28;20468;-78
2023/10/21 03:14:55;;;;;;;10.20;6.90;;;17.20;67.80;;;;;;5023703;28;20471;-76
2023/10/21 03:17:23;;;;;;;12.87;7.73;;;17.20;67.90;;;;;;5017895;28;20509;-79
2023/10/21 03:19:51;;;;;;;11.97;7.60;;;17.20;67.90;;;;;;5012358;28;20502;-78
2023/10/21 03:22:20;;;;;;;12.23;8.40;;;17.20;67.80;;;;;;5010740;28;20480;-79
2023/10/21 03:24:49;;;;;;;12.03;8.17;;;17.20;67.80;;;;;;5019863;28;20471;-79
2023/10/21 03:27:18;;;;;;;13.53;8.43;;;17.20;67.90;;;;;;5012309;28;20475;-78
2023/10/21 03:29:45;;;;;;;15.47;8.57;;;17.20;67.90;;;;;;5028314;28;20487;-77
2023/10/21 03:32:13;;;;;;;14.33;8.60;;;17.20;67.80;;;;;;5010848;28;20443;-79
2023/10/21 03:34:41;;;;;;;14.10;8.90;;;17.20;67.90;;;;;;5034979;28;20502;-78
2023/10/21 03:37:09;;;;;;;14.47;9.33;;;17.20;67.90;;;;;;5034892;28;20478;-78
2023/10/21 03:39:37;;;;;;;12.67;8.83;;;17.20;67.90;;;;;;5023238;28;20487;-78
2023/10/21 03:42:07;;;;;;;12.00;8.43;;;17.30;68.00;;;;;;5020079;28;20459;-79
2023/10/21 03:44:36;;;;;;;12.97;8.23;;;17.30;68.00;;;;;;5013648;28;20455;-78
2023/10/21 03:47:04;;;;;;;12.70;9.17;;;17.30;68.10;;;;;;5004790;28;20488;-77
2023/10/21 03:49:32;;;;;;;12.87;8.63;;;17.30;68.10;;;;;;5016120;28;20471;-78
2023/10/21 03:52:03;;;;;;;18.50;9.33;;;17.30;68.10;;;;;;5013099;28;20988;-76
2023/10/21 03:54:31;;;;;;;14.60;10.07;;;17.30;68.10;;;;;;5015589;28;20479;-77
2023/10/21 03:56:59;;;;;;;12.10;8.40;;;17.30;68.00;;;;;;5005995;28;20490;-77
2023/10/21 03:59:28;;;;;;;12.90;8.57;;;17.30;68.10;;;;;;5026443;28;20440;-77
2023/10/21 04:01:57;;;;;;;13.60;9.13;;;17.30;68.00;;;;;;5033490;28;20510;-77
2023/10/21 04:04:25;;;;;;;11.33;8.37;;;17.30;68.10;;;;;;5021493;28;20522;-75
2023/10/21 04:06:53;;;;;;;13.30;9.03;;;17.30;68.00;;;;;;5033643;28;20447;-76
2023/10/21 04:09:22;;;;;;;13.07;8.57;;;17.30;68.00;;;;;;5013628;28;20503;-77
2023/10/21 04:11:50;;;;;;;12.67;9.10;;;17.40;68.20;;;;;;5025153;28;20482;-77
2023/10/21 04:14:18;;;;;;;12.47;8.80;;;17.30;68.10;;;;;;5030846;28;20448;-76
2023/10/21 04:16:49;;;;;;;11.27;8.70;;;17.30;68.00;;;;;;5012391;28;20456;-76
2023/10/21 04:19:17;;;;;;;12.30;8.77;;;17.30;68.10;;;;;;5029091;28;20431;-77
2023/10/21 04:21:45;;;;;;;13.33;8.67;;;17.30;68.10;;;;;;5005157;28;20509;-78
2023/10/21 04:24:15;;;;;;;11.03;7.87;;;17.30;68.10;;;;;;5020461;28;20499;-77
2023/10/21 04:26:43;;;;;;;12.20;8.27;;;17.30;68.10;;;;;;5026752;28;20466;-77
2023/10/21 04:29:10;;;;;;;11.47;7.80;;;17.30;68.00;;;;;;5003570;28;20476;-77
2023/10/21 04:31:39;;;;;;;14.10;9.17;;;17.30;68.20;;;;;;4999264;28;20849;-78
2023/10/21 04:34:09;;;;;;;11.33;7.93;;;17.30;68.10;;;;;;5006645;28;20488;-77
2023/10/21 04:36:36;;;;;;;13.53;8.73;;;17.30;68.20;;;;;;5014891;28;20544;-77
2023/10/21 04:39:07;;;;;;;11.90;8.00;;;17.30;68.10;;;;;;5018666;28;20479;-76
2023/10/21 04:41:35;;;;;;;12.63;8.70;;;17.40;68.30;;;;;;5007667;28;20453;-77
2023/10/21 04:44:02;;;;;;;13.50;8.80;;;17.40;68.20;;;;;;5018115;28;20440;-77
2023/10/21 04:46:31;;;;;;;9.23;6.97;;;17.30;68.40;;;;;;5008881;28;20447;-78
2023/10/21 04:48:59;;;;;;;12.53;7.70;;;17.40;68.20;;;;;;5023920;28;20475;-78
2023/10/21 04:51:29;;;;;;;10.03;7.40;;;17.40;68.30;;;;;;5017013;28;21041;-78
2023/10/21 04:53:58;;;;;;;10.30;7.27;;;17.40;68.40;;;;;;5025396;28;20432;-78
2023/10/21 04:56:26;;;;;;;9.63;7.60;;;17.40;68.30;;;;;;5001067;28;20435;-78
2023/10/21 04:58:55;;;;;;;9.63;7.03;;;17.40;68.40;;;;;;5001089;28;20448;-79
2023/10/21 05:01:22;;;;;;;9.20;7.40;;;17.40;68.30;;;;;;4998421;28;20487;-78
2023/10/21 05:03:50;;;;;;;9.67;7.00;;;17.40;68.20;;;;;;5011456;28;20432;-78
2023/10/21 05:06:18;;;;;;;9.40;7.00;;;17.40;69.00;;;;;;5010900;28;20451;-78
2023/10/21 05:08:48;;;;;;;8.93;7.00;;;17.40;68.30;;;;;;5004786;28;20506;-78
2023/10/21 05:11:16;;;;;;;9.00;6.93;;;17.40;68.40;;;;;;5018629;28;20467;-78
2023/10/21 05:13:44;;;;;;;8.60;6.83;;;17.40;68.40;;;;;;5032396;28;20474;-79
2023/10/21 05:16:12;;;;;;;9.57;7.17;;;17.40;68.50;;;;;;5007911;28;20448;-78
2023/10/21 05:18:40;;;;;;;11.40;6.60;;;17.40;68.30;;;;;;5027543;28;20429;-78
2023/10/21 05:21:08;;;;;;;9.87;7.53;;;17.40;68.40;;;;;;4991874;28;20477;-78
2023/10/21 05:23:36;;;;;;;9.27;7.03;;;17.40;68.20;;;;;;5018909;28;20447;-79
2023/10/21 05:26:06;;;;;;;8.70;6.73;;;17.40;69.20;;;;;;5023840;28;20468;-79
2023/10/21 05:28:34;;;;;;;8.90;7.00;;;17.40;68.40;;;;;;5008920;28;20495;-80
2023/10/21 05:31:03;;;;;;;8.43;6.53;;;17.40;68.60;;;;;;5023361;28;21017;-79
2023/10/21 05:33:31;;;;;;;8.10;6.00;;;17.40;68.30;;;;;;5009550;28;20547;-79
2023/10/21 05:36:00;;;;;;;8.33;6.40;;;17.40;68.50;;;;;;5017907;28;20432;-79
2023/10/21 05:38:28;;;;;;;8.57;6.53;;;17.40;68.40;;;;;;5022699;28;20479;-78
2023/10/21 05:40:57;;;;;;;7.20;6.03;;;17.40;68.40;;;;;;5017173;28;20487;-79
2023/10/21 05:43:26;;;;;;;10.90;6.67;;;17.40;68.50;;;;;;5014332;28;20468;-79
2023/10/21 05:45:54;;;;;;;10.17;6.70;;;17.50;68.60;;;;;;5014512;28;20437;-79
2023/10/21 05:48:23;;;;;;;6.47;5.50;;;17.50;68.60;;;;;;5021693;28;20544;-79
2023/10/21 05:50:51;;;;;;;7.10;6.30;;;17.50;68.50;;;;;;5021754;28;20533;-79
2023/10/21 05:53:19;;;;;;;7.90;6.20;;;17.50;68.50;;;;;;5026791;28;20443;-76
2023/10/21 05:55:47;;;;;;;7.73;6.03;;;17.50;68.60;;;;;;5030994;28;20518;-76
2023/10/21 05:58:15;;;;;;;7.63;5.90;;;17.50;68.40;;;;;;5014916;28;20500;-76
2023/10/21 06:00:44;;;;;;;6.60;5.83;;;17.50;68.60;;;;;;5028598;28;20467;-77
2023/10/21 06:03:13;;;;;;;6.90;6.20;;;17.60;68.50;;;;;;5013065;28;20947;-76
2023/10/21 06:05:42;;;;;;;7.03;6.07;;;17.50;68.40;;;;;;5011799;28;20434;-77
2023/10/21 06:08:10;;;;;;;6.53;5.73;;;17.50;68.40;;;;;;5013107;28;20465;-77
2023/10/21 06:10:39;;;;;;;8.23;6.40;;;17.60;68.60;;;;;;5004111;28;20487;-78
2023/10/21 06:13:07;;;;;;;8.70;6.10;;;17.60;68.50;;;;;;5018663;28;20466;-77
2023/10/21 06:15:38;;;;;;;7.40;6.27;;;17.60;68.50;;;;;;5008827;28;20440;-77
2023/10/21 06:18:07;;;;;;;7.70;5.73;;;17.60;68.50;;;;;;5007526;28;20448;-78
2023/10/21 06:20:36;;;;;;;7.23;5.80;;;17.60;68.50;;;;;;5021756;28;20486;-77
2023/10/21 06:23:04;;;;;;;6.80;5.97;;;17.60;68.50;;;;;;5022106;28;20444;-77
2023/10/21 06:25:33;;;;;;;7.87;5.90;;;17.60;68.60;;;;;;5019711;28;20432;-75
2023/10/21 06:28:01;;;;;;;7.77;5.43;;;17.60;68.50;;;;;;5021142;28;20463;-76
2023/10/21 06:30:29;;;;;;;6.37;5.57;;;17.60;68.60;;;;;;5023830;28;20522;-76
2023/10/21 06:32:58;;;;;;;6.07;5.27;;;17.60;68.50;;;;;;5031253;28;20466;-77
2023/10/21 06:35:28;;;;;;;6.40;5.43;;;17.70;68.60;;;;;;5010957;28;20448;-77
2023/10/21 06:37:56;;;;;;;7.20;5.77;;;17.70;68.40;;;;;;5028874;28;20528;-76
2023/10/21 06:40:24;;;;;;;5.97;5.37;;;17.70;68.30;;;;;;5024642;28;20558;-78
2023/10/21 06:43:12;;;;;;;6.30;5.27;;;17.70;68.40;;;;;;5017755;28;20446;-78
2023/10/21 06:45:40;;;;;;;7.30;5.60;;;17.70;68.50;;;;;;5019155;28;20568;-78
2023/10/21 06:48:08;;;;;;;5.97;5.33;;;17.80;68.50;;;;;;5019400;28;20473;-78
2023/10/21 06:50:37;;;;;;;5.77;5.00;;;17.80;68.30;;;;;;5000906;28;20484;-78
2023/10/21 06:53:05;;;;;;;5.13;4.60;;;17.80;68.40;;;;;;5020121;28;20436;-77
2023/10/21 06:55:40;;;;;;;6.00;4.90;;;17.80;68.50;;;;;;5017318;28;20464;-77
2023/10/21 06:58:09;;;;;;;4.93;4.50;;;17.80;68.20;;;;;;5015045;28;20471;-77
2023/10/21 07:00:37;;;;;;;6.07;5.23;;;17.80;68.20;;;;;;5003106;28;20461;-76
2023/10/21 07:03:05;;;;;;;5.33;4.73;;;17.80;68.20;;;;;;4994913;28;20507;-76
2023/10/21 07:05:34;;;;;;;5.40;4.80;;;17.80;68.20;;;;;;5032664;28;20440;-78
2023/10/21 07:08:05;;;;;;;5.37;4.83;;;17.80;68.30;;;;;;5016425;28;20448;-78
2023/10/21 07:10:34;;;;;;;5.40;4.77;;;17.90;68.30;;;;;;5013859;28;20503;-78
2023/10/21 07:13:03;;;;;;;5.90;5.30;;;17.90;68.30;;;;;;5022308;28;20530;-78
2023/10/21 07:15:32;;;;;;;5.30;4.80;;;17.90;68.10;;;;;;5014424;28;20471;-77
2023/10/21 07:17:59;;;;;;;6.20;4.70;;;17.90;68.40;;;;;;5000681;28;20454;-76
2023/10/21 07:20:28;;;;;;;5.20;4.70;;;17.80;69.10;;;;;;5004714;28;20952;-78
2023/10/21 07:22:56;;;;;;;5.40;4.60;;;17.90;68.30;;;;;;5013912;28;20990;-78
2023/10/21 07:25:26;;;;;;;6.23;5.57;;;17.90;68.30;;;;;;5014121;28;20543;-78
2023/10/21 07:27:54;;;;;;;5.20;4.70;;;17.90;68.20;;;;;;5006300;28;20440;-77
2023/10/21 07:30:23;;;;;;;5.80;5.20;;;17.90;68.40;;;;;;4998484;28;20567;-78
2023/10/21 07:32:51;;;;;;;4.50;4.10;;;17.90;68.30;;;;;;5028703;28;20877;-78
2023/10/21 07:35:19;;;;;;;5.40;4.90;;;17.90;68.30;;;;;;5001634;28;20464;-78
2023/10/21 07:37:49;;;;;;;4.70;4.30;;;17.90;68.30;;;;;;5009789;28;20445;-78
2023/10/21 07:40:17;;;;;;;5.53;4.80;;;17.90;68.30;;;;;;4994182;28;20528;-78
2023/10/21 07:42:46;;;;;;;6.70;4.80;;;17.90;68.20;;;;;;4997967;28;20543;-78
2023/10/21 07:45:15;;;;;;;5.13;4.63;;;17.90;68.30;;;;;;5006003;28;20465;-79
2023/10/21 07:47:43;;;;;;;5.40;4.67;;;17.90;68.20;;;;;;4994171;28;20428;-78
2023/10/21 07:50:13;;;;;;;5.40;4.90;;;18.00;68.30;;;;;;5001167;28;20476;-78
2023/10/21 07:52:41;;;;;;;4.73;4.33;;;17.90;68.20;;;;;;5013907;28;20436;-77
2023/10/21 07:55:12;;;;;;;4.67;4.27;;;17.90;68.30;;;;;;4998639;28;20453;-78
2023/10/21 07:57:40;;;;;;;4.50;4.10;;;18.00;68.30;;;;;;5024532;28;20427;-78
2023/10/21 08:00:13;;;;;;;4.77;4.37;;;18.00;68.30;;;;;;5011167;28;20511;-77
2023/10/21 08:02:41;;;;;;;7.47;4.67;;;18.00;68.50;;;;;;5009041;28;20488;-77
2023/10/21 08:05:10;;;;;;;4.83;4.43;;;18.00;68.20;;;;;;5015956;28;20487;-79
2023/10/21 08:07:38;;;;;;;5.30;4.67;;;18.00;68.20;;;;;;5011790;28;20448;-79
2023/10/21 08:10:07;;;;;;;5.10;4.60;;;18.00;68.10;;;;;;5009263;28;20545;-78
2023/10/21 08:12:35;;;;;;;5.40;4.90;;;18.10;68.60;;;;;;5021210;28;20449;-78
2023/10/21 08:15:05;;;;;;;4.30;3.90;;;18.10;68.10;;;;;;5024015;28;20445;-78
2023/10/21 08:17:34;;;;;;;4.50;4.10;;;18.10;68.00;;;;;;5016948;28;20927;-78
2023/10/21 08:20:02;;;;;;;5.10;4.60;;;18.10;68.20;;;;;;5019446;28;20448;-78
2023/10/21 08:22:31;;;;;;;5.03;4.53;;;18.10;68.10;;;;;;5004887;28;20504;-78
2023/10/21 08:24:59;;;;;;;4.33;3.93;;;18.20;68.10;;;;;;5010567;28;20440;-77
2023/10/21 08:27:27;;;;;;;5.20;4.63;;;18.20;68.00;;;;;;5023560;28;20493;-78
2023/10/21 08:29:59;;;;;;;4.50;4.10;;;18.20;68.00;;;;;;5027825;28;20546;-78
2023/10/21 08:32:27;;;;;;;4.37;3.97;;;18.20;67.90;;;;;;5013730;28;20436;-78
2023/10/21 08:34:56;;;;;;;4.40;4.00;;;18.20;68.00;;;;;;5015321;28;20432;-78
2023/10/21 08:37:24;;;;;;;4.73;4.33;;;18.20;68.50;;;;;;5008502;28;20441;-77
2023/10/21 08:39:52;;;;;;;5.00;4.50;;;18.20;67.90;;;;;;4997590;28;20522;-79
2023/10/21 08:42:22;;;;;;;4.93;4.50;;;18.20;67.90;;;;;;4994139;28;20449;-78
2023/10/21 08:44:52;;;;;;;5.23;4.37;;;18.20;68.00;;;;;;4993334;28;20491;-78
2023/10/21 08:47:20;;;;;;;4.30;3.97;;;18.30;67.90;;;;;;4996915;28;20445;-78
2023/10/21 08:49:49;;;;;;;4.77;4.30;;;18.30;67.90;;;;;;5005473;28;20477;-78
2023/10/21 08:52:19;;;;;;;5.27;4.77;;;18.30;67.80;;;;;;5010270;28;20441;-78
2023/10/21 08:54:47;;;;;;;5.43;4.90;;;18.30;67.80;;;;;;5008313;28;20472;-78
2023/10/21 08:57:16;;;;;;;4.47;4.07;;;18.40;67.80;;;;;;5014857;28;20867;-78
2023/10/21 08:59:44;;;;;;;5.03;4.60;;;18.40;67.60;;;;;;4996182;28;20527;-76
2023/10/21 09:02:12;;;;;;;4.77;4.37;;;18.40;67.60;;;;;;5008822;28;20552;-77
2023/10/21 09:04:41;;;;;;;5.13;4.50;;;18.50;67.70;;;;;;5001892;28;20484;-78
2023/10/21 09:07:09;;;;;;;15.43;11.40;;;18.50;67.50;;;;;;5002278;28;20428;-79
2023/10/21 09:09:39;;;;;;;15.33;10.77;;;18.30;67.70;;;;;;5011937;28;20496;-77
2023/10/21 09:12:10;;;;;;;18.00;12.20;;;17.60;71.80;;;;;;5020069;28;20482;-78
2023/10/21 09:14:51;;;;;;;18.30;12.93;;;17.30;73.20;;;;;;5022664;28;20506;-78
2023/10/21 09:17:19;;;;;;;18.77;12.70;;;16.90;78.40;;;;;;5005655;28;20462;-77
2023/10/21 09:19:51;;;;;;;18.50;12.50;;;16.90;77.30;;;;;;5027230;28;20593;-77
2023/10/21 09:22:24;;;;;;;19.60;12.50;;;16.50;80.80;;;;;;5023407;28;20435;-75
2023/10/21 09:25:08;;;;;;;23.47;14.20;;;16.60;81.70;;;;;;5018997;28;20968;-79
2023/10/21 09:27:36;;;;;;;18.83;12.20;;;16.30;83.60;;;;;;5025730;28;20462;-79
2023/10/21 09:30:04;;;;;;;15.37;12.03;;;16.20;88.40;;;;;;5014500;28;20451;-79
2023/10/21 09:32:33;;;;;;;20.43;13.70;;;16.50;88.20;;;;;;5019560;28;20444;-78
2023/10/21 09:35:14;;;;;;;21.63;13.23;;;16.10;89.10;;;;;;5019975;28;20994;-78
2023/10/21 09:37:42;;;;;;;27.33;11.40;;;16.40;94.80;;;;;;5024866;28;20488;-80
2023/10/21 09:40:12;;;;;;;21.83;12.97;;;17.10;94.80;;;;;;5010729;28;20452;-79
2023/10/21 09:42:41;;;;;;;18.60;10.67;;;17.80;93.70;;;;;;5006711;28;20452;-79
2023/10/21 09:45:11;;;;;;;19.90;11.20;;;18.20;93.00;;;;;;5034170;28;20443;-79
2023/10/21 09:47:40;;;;;;;18.30;10.27;;;18.60;92.20;;;;;;5020058;28;20421;-77
2023/10/21 09:50:13;;;;;;;19.37;10.30;;;19.00;91.70;;;;;;5021581;28;20535;-75
2023/10/21 09:52:46;;;;;;;12.20;9.57;;;19.30;91.20;;;;;;5003118;28;20580;-79
2023/10/21 09:55:17;;;;;;;14.60;9.20;;;19.60;90.50;;;;;;5012075;28;20475;-78
2023/10/21 09:57:47;;;;;;;12.43;9.30;;;19.80;90.40;;;;;;5021884;28;20486;-77
2023/10/21 10:00:19;;;;;;;17.70;8.47;;;20.00;89.80;;;;;;5009791;28;20467;-78
2023/10/21 10:02:50;;;;;;;12.27;9.00;;;20.20;88.70;;;;;;5015895;28;20429;-79
2023/10/21 10:05:18;;;;;;;10.90;7.87;;;20.30;88.80;;;;;;5018622;28;20463;-79
2023/10/21 10:07:46;;;;;;;12.03;8.17;;;20.40;88.20;;;;;;5028248;28;20463;-79
2023/10/21 10:10:16;;;;;;;16.23;7.73;;;20.40;87.70;;;;;;5021138;28;20471;-78
2023/10/21 10:12:46;;;;;;;12.10;8.20;;;20.50;87.20;;;;;;5014412;28;20436;-78
2023/10/21 10:15:31;;;;;;;19.53;8.23;;;20.60;87.60;;;;;;5013509;28;20514;-81
2023/10/21 10:18:00;;;;;;;20.70;8.70;;;20.70;88.60;;;;;;4998636;28;20548;-78
2023/10/21 10:20:29;;;;;;;16.97;7.90;;;20.80;88.50;;;;;;5001369;28;20461;-78
2023/10/21 10:23:00;;;;;;;11.07;7.50;;;20.90;88.80;;;;;;5012698;28;20467;-79
2023/10/21 10:25:32;;;;;;;23.73;8.03;;;21.30;90.00;;;;;;5014119;28;20444;-78
2023/10/21 10:28:07;;;;;;;22.90;7.43;;;21.50;89.40;;;;;;5029092;28;20474;-78
2023/10/21 10:30:36;;;;;;;22.07;7.50;;;21.70;88.90;;;;;;4997710;28;20461;-79
2023/10/21 10:33:12;;;;;;;19.43;7.23;;;21.90;88.30;;;;;;5007459;28;20536;-74
2023/10/21 10:35:42;;;;;;;8.30;4.87;;;22.10;88.50;;;;;;5006209;28;20474;-78
2023/10/21 10:38:17;;;;;;;8.33;5.20;;;22.50;86.90;;;;;;5013382;28;20440;-78
2023/10/21 10:40:48;;;;;;;8.03;5.00;;;23.00;81.70;;;;;;5008970;28;20959;-80
2023/10/21 10:43:19;;;;;;;10.73;4.97;;;23.40;77.70;;;;;;5007190;28;20445;-80
2023/10/21 10:45:48;;;;;;;6.73;5.77;;;23.50;75.40;;;;;;5015083;28;20444;-80
2023/10/21 10:48:16;;;;;;;6.70;5.33;;;23.40;73.50;;;;;;5005306;28;20444;-79
2023/10/21 10:50:45;;;;;;;6.43;4.93;;;23.20;73.70;;;;;;5022995;28;20460;-80
2023/10/21 10:53:16;;;;;;;8.20;5.23;;;23.00;73.80;;;;;;5014873;28;20446;-79
2023/10/21 10:55:49;;;;;;;6.13;5.50;;;22.70;73.90;;;;;;5011986;28;20504;-81
2023/10/21 10:58:18;;;;;;;6.63;6.00;;;22.50;74.40;;;;;;5016405;28;20443;-80
2023/10/21 11:00:51;;;;;;;7.07;5.20;;;22.30;75.70;;;;;;5020693;28;20518;-81
2023/10/21 11:03:26;;;;;;;7.13;5.60;;;22.20;75.70;;;;;;5023775;28;20463;-80
2023/10/21 11:05:59;;;;;;;10.53;5.80;;;22.10;76.40;;;;;;5036032;28;20444;-81
2023/10/21 11:08:29;;;;;;;7.57;5.23;;;22.10;76.60;;;;;;5016905;28;20471;-80
2023/10/21 11:11:05;;;;;;;10.60;5.80;;;22.20;77.60;;;;;;5004529;28;20458;-81
2023/10/21 11:13:33;;;;;;;8.70;5.87;;;22.40;76.60;;;;;;5019527;28;20475;-80
2023/10/21 11:16:04;;;;;;;6.33;5.73;;;22.40;76.00;;;;;;5016007;28;20516;-80
2023/10/21 11:18:34;;;;;;;7.03;5.30;;;22.30;76.00;;;;;;5019746;28;20539;-79
2023/10/21 11:21:02;;;;;;;13.57;5.93;;;22.10;75.80;;;;;;5015020;28;20515;-81
2023/10/21 11:23:30;;;;;;;8.93;6.00;;;22.00;76.10;;;;;;5015668;28;20520;-83
2023/10/21 11:26:00;;;;;;;7.10;5.70;;;21.90;76.70;;;;;;5030132;28;20523;-81
2023/10/21 11:28:30;;;;;;;6.20;5.60;;;21.90;77.00;;;;;;5023474;28;20444;-83
2023/10/21 11:31:02;;;;;;;6.20;5.70;;;21.80;77.00;;;;;;5032730;28;20475;-83
2023/10/21 11:33:30;;;;;;;8.53;5.73;;;21.80;77.70;;;;;;5035782;28;20433;-82
2023/10/21 11:36:00;;;;;;;9.83;5.80;;;21.80;77.80;;;;;;5015591;28;20441;-83
2023/10/21 11:38:30;;;;;;;6.90;6.03;;;21.80;77.50;;;;;;5022863;28;20472;-82
2023/10/21 11:41:00;;;;;;;7.13;5.77;;;22.00;80.30;;;;;;5013961;28;20465;-81
2023/10/21 11:43:35;;;;;;;5.87;5.37;;;22.20;77.20;;;;;;5017744;28;20452;-81
2023/10/21 11:46:09;;;;;;;6.00;5.40;;;22.30;76.40;;;;;;5024077;28;20447;-81
2023/10/21 11:48:38;;;;;;;5.00;4.57;;;22.30;76.10;;;;;;5011509;28;20445;-82
2023/10/21 11:51:08;;;;;;;5.87;5.37;;;22.40;76.30;;;;;;5007891;28;20434;-81
2023/10/21 11:53:38;;;;;;;5.00;4.53;;;22.50;76.60;;;;;;5025130;28;20516;-80
2023/10/21 12:16:55;;;;;;;4.70;3.90;;;21.90;76.50;;;;;;4983142;28;20455;-79
2023/10/21 12:59:00;;;;;;;;;;;;;;;;;;;;;
2023/10/21 13:17:48;;;;;;;2.90;2.60;;;25.80;63.70;;;;;;4840224;29;20457;-79
2023/10/21 13:40:37;;;;;;;1.87;1.87;;;26.60;63.70;;;;;;4827037;29;20422;-82
2023/10/21 13:44:16;;;;;;;;;;;;;;;;;;;;;
2023/10/21 13:47:38;;;;;;;2.60;2.40;;;26.60;61.40;;;;;;4859690;29;20422;-81
2023/10/21 13:54:40;;;;;;;2.10;2.00;;;25.60;61.10;;;;;;4829524;29;20467;-81
2023/10/21 13:58:12;;;;;;;2.17;2.07;;;25.10;62.40;;;;;;4825113;29;20483;-81
2023/10/21 14:08:42;;;;;;;2.40;2.20;;;24.40;65.00;;;;;;4695058;30;20471;-80
2023/10/21 14:21:40;;;;;;;2.20;2.10;;;24.40;66.20;;;;;;4827855;29;20210;-81
2023/10/21 14:32:17;;;;;;;2.63;2.53;;;24.20;65.70;;;;;;4892997;29;20442;-80
2023/10/21 14:35:50;;;;;;;;;;;;;;;;;;;;;
2023/10/21 14:39:02;;;;;;;2.00;1.90;;;24.20;66.30;;;;;;4916893;29;20891;-80
2023/10/21 15:01:47;;;;;;;2.30;2.10;;;24.40;64.10;;;;;;4936475;29;20532;-80
2023/10/21 15:08:56;;;;;;;2.23;2.07;;;24.10;64.40;;;;;;4897886;29;20439;-80
2023/10/21 15:11:37;;;;;;;3.70;2.10;;;23.90;64.80;;;;;;4887045;29;20451;-80
2023/10/21 15:14:22;;;;;;;2.47;2.37;;;23.80;65.10;;;;;;4893627;29;20476;-79
2023/10/21 15:17:13;;;;;;;4.50;4.10;;;23.60;65.50;;;;;;4892694;29;20526;-78
2023/10/21 15:19:42;;;;;;;6.20;3.97;;;23.70;66.80;;;;;;4891715;29;20454;-78
2023/10/21 15:22:10;;;;;;;6.07;4.23;;;23.80;66.20;;;;;;4892339;29;20477;-78
2023/10/21 15:24:40;;;;;;;11.07;4.60;;;23.90;66.10;;;;;;4896257;29;20449;-78
2023/10/21 15:27:09;;;;;;;9.53;4.53;;;24.00;66.80;;;;;;4897711;29;20507;-77
2023/10/21 15:29:38;;;;;;;12.07;4.77;;;24.10;66.20;;;;;;4892087;29;20628;-78
2023/10/21 15:32:09;;;;;;;5.70;4.50;;;24.30;66.00;;;;;;4895178;29;20533;-78
2023/10/21 15:34:38;;;;;;;5.73;4.23;;;24.40;65.90;;;;;;4896873;29;20501;-78
2023/10/21 15:37:07;;;;;;;8.73;3.83;;;24.50;65.70;;;;;;4893856;29;20470;-79